Terminal Aerodrome Forecast
Issued by NWS Twin Cities, MN

Home | Current Version | Previous Version | Graphics & Text | Print | Product List | Glossary On
Versions: 1 2 3 4 5 6 7 8 9 10 11 12 13 14 15 16 17 18 19
009
FTUS43 KMPX 300258 AAA
TAFSTC
TAF AMD
KSTC 300258Z 3003/3024 15006KT P6SM -RA OVC007
     FM300700 30003KT 2SM -SN BR OVC005
     FM302100 33006KT 4SM -SN BR OVC008=

USA.gov is the U.S. government's official web portal to all federal, state and local government web resources and services.